This is the latest recevied weather packets stored in our database for station/object DJ8HS-1. If no packets are shown the sender has not sent any weather packets the latest 1 day(s).
| Time | Temp. | Humidity | Pressure | Rain* | Wind** | Luminosity | Snow |
|---|---|---|---|---|---|---|---|
| 1777967150 | 20.56° C | 58% | 0 hPa | 0 mm | 0 m/s | - | - |
| 1777966850 | 19.44° C | 65% | 0 hPa | 0 mm | 0 m/s | - | - |
| 1777966550 | 18.33° C | 71% | 0 hPa | 0 mm | 0 m/s | - | - |
| 1777966250 | 17.22° C | 74% | 0 hPa | 0 mm | 0 m/s | - | - |
| 1777965949 | 17.22° C | 75% | 0 hPa | 0 mm | 0 m/s | - | - |
| 1777965649 | 16.67° C | 75% | 0 hPa | 0 mm | 0 m/s | - | - |
| 1777965349 | 16.11° C | 76% | 0 hPa | 0 mm | 0 m/s | - | - |
| 1777965048 | 16.11° C | 77% | 0 hPa | 0 mm | 0 m/s | - | - |
| 1777964748 | 16.11° C | 78% | 0 hPa | 0 mm | 0 m/s | - | - |
| 1777964448 | 16.11° C | 78% | 0 hPa | 0 mm | 0 m/s | - | - |
| 1777964148 | 15.56° C | 79% | 0 hPa | 0 mm | 0 m/s | - | - |
| 1777963847 | 15.56° C | 79% | 0 hPa | 0 mm | 0 m/s | - | - |
| 1777963547 | 15.56° C | 79% | 0 hPa | 0 mm | 0 m/s | - | - |
| 1777963247 | 15.56° C | 79% | 0 hPa | 0 mm | 0 m/s | - | - |
| 1777962946 | 15° C | 80% | 0 hPa | 0 mm | 0 m/s | - | - |
| 1777962646 | 15° C | 80% | 0 hPa | 0 mm | 0 m/s | - | - |
| 1777962346 | 15° C | 79% | 0 hPa | 0 mm | 0 m/s | - | - |
| 1777962045 | 15° C | 80% | 0 hPa | 0 mm | 0 m/s | - | - |
| 1777961745 | 15° C | 80% | 0 hPa | 0 mm | 0 m/s | - | - |
| 1777961445 | 15° C | 80% | 0 hPa | 0 mm | 0 m/s | - | - |
| 1777961145 | 15° C | 81% | 0 hPa | 0 mm | 0 m/s | - | - |
| 1777960844 | 14.44° C | 80% | 0 hPa | 0 mm | 0 m/s | - | - |
| 1777960544 | 14.44° C | 80% | 0 hPa | 0 mm | 0 m/s | - | - |
| 1777960244 | 14.44° C | 80% | 0 hPa | 0 mm | 0 m/s | - | - |
| 1777959943 | 14.44° C | 80% | 0 hPa | 0 mm | 0 m/s | - | - |
* Rain latest hour (hover to see other rain measurements)
** Current wind speed in m/s (hover to see current wind gust speed)